createdAt,value
2023-11-16T00:00:14.673Z,93.535
2023-11-16T00:01:14.763Z,93.584
2023-11-16T00:02:14.702Z,93.393
2023-11-16T00:03:14.952Z,92.913
2023-11-16T00:04:15.190Z,92.945
2023-11-16T00:05:14.057Z,93.216
2023-11-16T00:06:14.955Z,93.115
2023-11-16T00:07:14.815Z,93.393
2023-11-16T00:08:14.653Z,92.972
2023-11-16T00:09:14.553Z,92.938
2023-11-16T00:11:14.380Z,92.939
2023-11-16T00:12:14.508Z,93.248
2023-11-16T00:13:14.865Z,93.281
2023-11-16T00:14:14.703Z,93.237
2023-11-16T00:15:14.571Z,93.046
2023-11-16T00:16:14.582Z,93.079
2023-11-16T00:17:14.558Z,92.955
2023-11-16T00:18:14.645Z,93.105
2023-11-16T00:20:14.065Z,92.833
2023-11-16T00:21:14.925Z,92.871
2023-11-16T00:23:14.574Z,92.947
2023-11-16T00:24:14.441Z,93.218
2023-11-16T00:25:14.186Z,93.252
2023-11-16T00:26:14.982Z,93.283
2023-11-16T00:27:14.726Z,92.962
2023-11-16T00:28:14.467Z,93.300
2023-11-16T00:29:14.352Z,92.892
2023-11-16T00:31:15.134Z,92.804
2023-11-16T00:32:15.195Z,92.880
2023-11-16T00:33:15.217Z,92.978
2023-11-16T00:34:14.014Z,92.919
2023-11-16T00:35:14.714Z,93.037
2023-11-16T00:36:14.477Z,93.149
2023-11-16T00:38:14.147Z,93.020
2023-11-16T00:39:15.053Z,92.997
2023-11-16T00:40:14.879Z,92.993
2023-11-16T00:42:14.600Z,92.720
2023-11-16T00:43:14.391Z,93.142
2023-11-16T00:44:14.231Z,93.187
2023-11-16T00:45:14.971Z,92.621
2023-11-16T00:46:15.124Z,92.749
2023-11-16T00:47:14.281Z,92.684
2023-11-16T00:48:14.692Z,92.795
2023-11-16T00:49:14.699Z,92.665
2023-11-16T00:50:14.481Z,93.151
2023-11-16T00:51:14.490Z,93.277
2023-11-16T00:52:14.306Z,92.930
2023-11-16T00:55:14.998Z,93.111
2023-11-16T00:56:14.757Z,92.898
2023-11-16T00:57:14.505Z,93.264
2023-11-16T00:58:14.264Z,92.919
2023-11-16T01:00:15.492Z,93.020
2023-11-16T01:01:14.498Z,93.052
2023-11-16T01:02:14.699Z,93.046
2023-11-16T01:03:15.200Z,92.857
2023-11-16T01:04:14.310Z,93.018
2023-11-16T01:05:14.171Z,93.025
2023-11-16T01:06:15.028Z,92.848
2023-11-16T01:08:14.429Z,93.073
2023-11-16T01:09:14.348Z,93.060
2023-11-16T01:10:14.249Z,92.737
2023-11-16T01:11:14.973Z,92.981
2023-11-16T01:12:14.658Z,93.151
2023-11-16T01:13:15.084Z,93.441
2023-11-16T01:14:14.710Z,93.243
2023-11-16T01:15:14.509Z,93.390
2023-11-16T01:18:14.899Z,93.590
2023-11-16T01:19:14.917Z,93.746
2023-11-16T01:20:14.637Z,93.584
2023-11-16T01:21:14.443Z,93.535
2023-11-16T01:22:14.429Z,93.525
2023-11-16T01:23:14.852Z,93.512
2023-11-16T01:24:16.514Z,93.418
2023-11-16T01:25:14.514Z,93.327
2023-11-16T01:26:14.286Z,93.189
2023-11-16T01:27:14.607Z,93.422
2023-11-16T01:28:15.012Z,93.203
2023-11-16T01:29:15.058Z,93.271
2023-11-16T01:30:14.971Z,93.390
2023-11-16T01:31:15.069Z,93.123
2023-11-16T01:33:15.176Z,93.424
2023-11-16T01:34:14.953Z,93.496
2023-11-16T01:36:14.738Z,93.525
2023-11-16T01:38:14.218Z,93.670
2023-11-16T01:39:15.229Z,93.809
2023-11-16T01:40:14.999Z,93.813
2023-11-16T01:41:14.663Z,93.807
2023-11-16T01:44:14.661Z,94.015
2023-11-16T01:45:14.413Z,93.893
2023-11-16T01:46:14.033Z,93.947
2023-11-16T01:47:13.966Z,93.907
2023-11-16T01:48:14.983Z,93.889
2023-11-16T01:50:14.365Z,93.861
2023-11-16T01:51:15.501Z,93.815
2023-11-16T01:52:14.226Z,93.762
2023-11-16T01:53:15.256Z,93.769
2023-11-16T01:54:14.882Z,93.710
2023-11-16T01:55:14.652Z,93.802
2023-11-16T01:56:14.077Z,94.078
2023-11-16T01:57:14.892Z,94.147
2023-11-16T01:59:14.117Z,94.280
2023-11-16T02:00:14.905Z,94.240
2023-11-16T02:01:14.729Z,94.265
2023-11-16T02:02:14.989Z,94.189
2023-11-16T02:03:15.038Z,93.969
2023-11-16T02:04:19.449Z,93.815
2023-11-16T02:05:14.098Z,93.920
2023-11-16T02:06:14.994Z,93.979
2023-11-16T02:09:14.679Z,94.059
2023-11-16T02:10:14.278Z,94.032
2023-11-16T02:11:16.989Z,93.987
2023-11-16T02:12:13.995Z,94.051
2023-11-16T02:13:14.573Z,94.036
2023-11-16T02:14:14.088Z,94.057
2023-11-16T02:15:14.778Z,94.071
2023-11-16T02:16:14.559Z,94.141
2023-11-16T02:17:14.201Z,93.968
2023-11-16T02:18:14.894Z,94.216
2023-11-16T02:19:14.525Z,94.061
2023-11-16T02:22:14.242Z,94.439
2023-11-16T02:23:14.777Z,94.305
2023-11-16T02:24:14.401Z,94.261
2023-11-16T02:25:13.901Z,94.469
2023-11-16T02:26:14.681Z,94.687
2023-11-16T02:27:14.385Z,94.599
2023-11-16T02:28:14.088Z,94.423
2023-11-16T02:29:14.572Z,94.332
2023-11-16T02:30:14.296Z,93.962
2023-11-16T02:31:13.904Z,94.126
2023-11-16T02:32:14.640Z,94.292
2023-11-16T02:33:14.752Z,93.842
2023-11-16T02:34:14.868Z,94.000
2023-11-16T02:35:14.366Z,94.046
2023-11-16T02:36:14.992Z,93.937
2023-11-16T02:37:14.621Z,94.313
2023-11-16T02:38:14.305Z,94.360
2023-11-16T02:39:15.127Z,94.452
2023-11-16T02:43:14.613Z,94.208
2023-11-16T02:44:14.204Z,94.118
2023-11-16T02:45:14.884Z,94.248
2023-11-16T02:46:14.489Z,94.357
2023-11-16T02:47:14.049Z,94.456
2023-11-16T02:48:15.399Z,94.317
2023-11-16T02:50:13.921Z,94.380
2023-11-16T02:51:14.585Z,94.154
2023-11-16T02:52:14.268Z,94.542
2023-11-16T02:53:14.897Z,94.441
2023-11-16T02:55:14.124Z,94.652
2023-11-16T02:56:14.832Z,94.587
2023-11-16T02:57:14.574Z,94.526
2023-11-16T02:58:14.192Z,94.671
2023-11-16T02:59:14.782Z,94.692
2023-11-16T03:00:14.631Z,94.776
2023-11-16T03:01:14.840Z,94.847
2023-11-16T03:02:14.444Z,94.731
2023-11-16T03:03:14.213Z,94.925
2023-11-16T03:04:14.510Z,94.978
2023-11-16T03:05:14.150Z,95.139
2023-11-16T03:06:14.859Z,95.156
2023-11-16T03:07:30.818Z,95.148
2023-11-16T03:09:14.269Z,95.343
2023-11-16T03:10:14.867Z,95.312
2023-11-16T03:11:14.397Z,95.156
2023-11-16T03:12:13.858Z,95.163
2023-11-16T03:13:14.660Z,95.173
2023-11-16T03:14:14.206Z,95.165
2023-11-16T03:15:14.926Z,95.104
2023-11-16T03:16:14.751Z,95.026
2023-11-16T03:17:14.320Z,95.024
2023-11-16T03:18:15.078Z,94.978
2023-11-16T03:19:14.753Z,95.070
2023-11-16T03:21:14.865Z,95.337
2023-11-16T03:22:14.489Z,95.375
2023-11-16T03:23:13.961Z,95.287
2023-11-16T03:24:14.726Z,95.484
2023-11-16T03:25:14.300Z,95.329
2023-11-16T03:26:14.824Z,95.469
2023-11-16T03:27:14.465Z,95.547
2023-11-16T03:28:14.068Z,95.362
2023-11-16T03:29:14.600Z,95.230
2023-11-16T03:30:14.509Z,95.188
2023-11-16T03:31:14.630Z,95.200
2023-11-16T03:32:14.122Z,95.190
2023-11-16T03:33:15.358Z,95.318
2023-11-16T03:34:14.153Z,95.104
2023-11-16T03:35:14.658Z,95.181
2023-11-16T03:36:14.636Z,95.041
2023-11-16T03:37:14.231Z,94.866
2023-11-16T03:38:14.757Z,95.009
2023-11-16T03:40:14.131Z,95.366
2023-11-16T03:41:14.729Z,95.238
2023-11-16T03:42:14.255Z,95.207
2023-11-16T03:43:14.947Z,95.301
2023-11-16T03:45:14.161Z,95.390
2023-11-16T03:46:14.946Z,95.551
2023-11-16T03:47:14.555Z,95.442
2023-11-16T03:48:14.544Z,95.562
2023-11-16T03:49:14.735Z,95.581
2023-11-16T03:50:14.340Z,95.648
2023-11-16T03:51:14.045Z,95.614
2023-11-16T03:52:14.870Z,95.545
2023-11-16T03:53:14.322Z,95.627
2023-11-16T03:54:15.011Z,95.730
2023-11-16T03:55:14.783Z,95.698
2023-11-16T03:57:14.117Z,95.738
2023-11-16T03:58:14.826Z,95.696
2023-11-16T03:59:14.321Z,95.436
2023-11-16T04:00:15.316Z,95.434
2023-11-16T04:01:13.873Z,95.501
2023-11-16T04:02:14.518Z,95.495
2023-11-16T04:03:14.488Z,95.452
2023-11-16T04:04:15.001Z,95.419
2023-11-16T04:06:14.508Z,95.440
2023-11-16T04:07:14.204Z,95.528
2023-11-16T04:08:14.690Z,95.522
2023-11-16T04:09:14.446Z,95.562
2023-11-16T04:10:14.848Z,95.579
2023-11-16T04:11:14.359Z,95.522
2023-11-16T04:12:13.895Z,95.463
2023-11-16T04:13:14.708Z,95.493
2023-11-16T04:14:14.209Z,95.566
2023-11-16T04:15:15.464Z,95.583
2023-11-16T04:16:14.225Z,95.593
2023-11-16T04:17:14.840Z,95.652
2023-11-16T04:18:14.734Z,95.715
2023-11-16T04:19:14.878Z,95.841
2023-11-16T04:20:14.057Z,95.755
2023-11-16T04:21:14.836Z,95.705
2023-11-16T04:22:14.505Z,95.616
2023-11-16T04:23:13.920Z,95.528
2023-11-16T04:24:14.606Z,95.703
2023-11-16T04:25:14.371Z,95.699
2023-11-16T04:28:14.405Z,95.390
2023-11-16T04:29:13.936Z,95.297
2023-11-16T04:30:14.753Z,95.242
2023-11-16T04:31:14.555Z,95.200
2023-11-16T04:32:14.392Z,95.020
2023-11-16T04:33:14.034Z,95.041
2023-11-16T04:34:14.842Z,94.973
2023-11-16T04:35:14.335Z,94.885
2023-11-16T04:38:14.357Z,95.032
2023-11-16T04:39:15.005Z,94.916
2023-11-16T04:40:14.583Z,95.049
2023-11-16T04:41:14.065Z,94.908
2023-11-16T04:42:14.778Z,94.826
2023-11-16T04:43:14.541Z,94.765
2023-11-16T04:44:14.205Z,94.731
2023-11-16T04:45:14.926Z,94.673
2023-11-16T04:46:14.576Z,94.715
2023-11-16T04:47:14.060Z,94.654
2023-11-16T04:48:15.145Z,94.721
2023-11-16T04:49:15.423Z,94.866
2023-11-16T04:50:14.510Z,94.870
2023-11-16T04:51:14.176Z,94.774
2023-11-16T04:52:14.895Z,94.832
2023-11-16T04:53:14.414Z,94.900
2023-11-16T04:54:13.938Z,94.946
2023-11-16T04:55:19.493Z,94.954
2023-11-16T04:57:14.261Z,95.112
2023-11-16T04:58:14.748Z,94.851
2023-11-16T04:59:14.204Z,94.835
2023-11-16T05:00:15.283Z,94.750
2023-11-16T05:01:14.204Z,94.847
2023-11-16T05:02:14.793Z,94.879
2023-11-16T05:03:14.924Z,95.013
2023-11-16T05:04:14.302Z,95.133
2023-11-16T05:05:14.274Z,94.961
2023-11-16T05:06:15.332Z,95.175
2023-11-16T05:07:13.930Z,95.202
2023-11-16T05:08:14.490Z,95.316
2023-11-16T05:09:14.063Z,95.261
2023-11-16T05:10:14.828Z,95.110
2023-11-16T05:11:13.921Z,95.204
2023-11-16T05:12:14.683Z,95.343
2023-11-16T05:13:14.319Z,95.297
2023-11-16T05:14:14.789Z,95.373
2023-11-16T05:15:16.363Z,95.402
2023-11-16T05:16:15.803Z,95.452
2023-11-16T05:17:14.436Z,95.522
2023-11-16T05:18:14.318Z,95.545
2023-11-16T05:19:13.943Z,95.600
2023-11-16T05:20:14.477Z,95.492
2023-11-16T05:21:17.810Z,95.575
2023-11-16T05:23:14.555Z,95.497
2023-11-16T05:24:14.213Z,95.434
2023-11-16T05:25:14.882Z,95.356
2023-11-16T05:26:14.494Z,95.385
2023-11-16T05:27:14.060Z,95.537
2023-11-16T05:28:14.665Z,95.556
2023-11-16T05:32:14.091Z,95.614
2023-11-16T05:33:14.921Z,95.581
2023-11-16T05:35:14.251Z,95.549
2023-11-16T05:36:14.906Z,95.534
2023-11-16T05:37:14.484Z,95.564
2023-11-16T05:38:13.960Z,95.499
2023-11-16T05:39:14.514Z,95.522
2023-11-16T05:40:14.179Z,95.534
2023-11-16T05:41:14.811Z,95.493
2023-11-16T05:42:14.403Z,95.442
2023-11-16T05:43:13.989Z,95.402
2023-11-16T05:44:14.512Z,95.274
2023-11-16T05:45:14.336Z,95.341
2023-11-16T05:46:14.384Z,95.486
2023-11-16T05:48:14.937Z,95.146
2023-11-16T05:49:14.596Z,95.020
2023-11-16T05:50:14.062Z,95.173
2023-11-16T05:51:14.969Z,94.933
2023-11-16T05:53:14.295Z,94.793
2023-11-16T05:54:15.118Z,94.614
2023-11-16T05:55:14.691Z,94.416
2023-11-16T05:56:14.170Z,94.244
2023-11-16T05:57:14.857Z,94.162
2023-11-16T05:58:14.442Z,94.153
2023-11-16T05:59:13.997Z,94.051
2023-11-16T06:00:14.847Z,93.985
2023-11-16T06:01:14.622Z,93.950
2023-11-16T06:02:14.373Z,93.960
2023-11-16T06:03:15.286Z,93.945
2023-11-16T06:04:14.251Z,94.004
2023-11-16T06:05:19.057Z,94.044
2023-11-16T06:07:14.430Z,94.156
2023-11-16T06:08:14.101Z,93.994
2023-11-16T06:09:14.788Z,93.895
2023-11-16T06:10:14.375Z,94.093
2023-11-16T06:11:13.884Z,94.256
2023-11-16T06:12:14.598Z,94.191
2023-11-16T06:13:14.108Z,94.134
2023-11-16T06:14:14.755Z,93.928
2023-11-16T06:15:14.400Z,94.200
2023-11-16T06:16:14.207Z,93.996
2023-11-16T06:17:14.853Z,93.811
2023-11-16T06:18:14.704Z,93.998
2023-11-16T06:20:14.905Z,94.195
2023-11-16T06:21:14.505Z,93.956
2023-11-16T06:22:14.031Z,94.103
2023-11-16T06:23:14.531Z,93.716
2023-11-16T06:24:14.508Z,94.015
2023-11-16T06:25:14.591Z,93.722
2023-11-16T06:28:14.556Z,93.750
2023-11-16T06:29:14.088Z,93.701
2023-11-16T06:30:15.082Z,93.802
2023-11-16T06:31:14.845Z,93.853
2023-11-16T06:32:14.418Z,93.458
2023-11-16T06:33:14.274Z,93.414
2023-11-16T06:34:15.674Z,93.166
2023-11-16T06:35:14.636Z,93.256
2023-11-16T06:36:14.282Z,93.176
2023-11-16T06:37:13.982Z,93.239
2023-11-16T06:38:14.494Z,93.247
2023-11-16T06:39:14.048Z,92.926
2023-11-16T06:41:14.368Z,92.783
2023-11-16T06:42:13.967Z,92.999
2023-11-16T06:43:14.560Z,92.941
2023-11-16T06:44:14.057Z,92.577
2023-11-16T06:45:14.922Z,92.919
2023-11-16T06:46:14.580Z,92.848
2023-11-16T06:47:14.216Z,93.039
2023-11-16T06:48:14.032Z,92.802
2023-11-16T06:49:14.820Z,92.686
2023-11-16T06:51:14.952Z,92.701
2023-11-16T06:52:14.595Z,92.774
2023-11-16T06:53:14.087Z,92.543
2023-11-16T06:54:14.723Z,92.369
2023-11-16T06:55:14.615Z,92.497
2023-11-16T06:56:14.188Z,92.791
2023-11-16T06:57:15.010Z,92.701
2023-11-16T06:58:14.555Z,92.434
2023-11-16T06:59:14.233Z,92.640
2023-11-16T07:00:13.961Z,92.516
2023-11-16T07:01:14.031Z,92.854
2023-11-16T07:02:14.840Z,92.686
2023-11-16T07:03:14.846Z,92.726
2023-11-16T07:04:15.133Z,92.480
2023-11-16T07:06:14.568Z,92.692
2023-11-16T07:07:14.185Z,92.718
2023-11-16T07:08:14.741Z,92.812
2023-11-16T07:09:14.398Z,92.676
2023-11-16T07:10:14.034Z,92.445
2023-11-16T07:11:14.603Z,92.810
2023-11-16T07:13:13.959Z,92.434
2023-11-16T07:14:14.459Z,92.802
2023-11-16T07:15:14.389Z,92.491
2023-11-16T07:16:13.981Z,92.674
2023-11-16T07:17:15.238Z,92.585
2023-11-16T07:18:15.734Z,92.905
2023-11-16T07:19:14.845Z,93.212
2023-11-16T07:20:14.679Z,93.311
2023-11-16T07:21:14.255Z,93.308
2023-11-16T07:24:14.224Z,93.855
2023-11-16T07:25:14.991Z,93.870
2023-11-16T07:26:14.671Z,93.645
2023-11-16T07:27:14.487Z,93.811
2023-11-16T07:28:14.156Z,93.975
2023-11-16T07:29:14.710Z,94.668
2023-11-16T07:30:14.465Z,93.907
2023-11-16T07:33:16.586Z,93.903
2023-11-16T07:34:14.500Z,93.605
2023-11-16T07:35:14.111Z,93.678
2023-11-16T07:36:14.783Z,93.540
2023-11-16T07:37:14.537Z,93.493
2023-11-16T07:39:14.843Z,93.464
2023-11-16T07:40:14.588Z,93.416
2023-11-16T07:41:14.557Z,93.712
2023-11-16T07:42:14.389Z,93.567
2023-11-16T07:43:13.941Z,93.554
2023-11-16T07:44:14.549Z,93.865
2023-11-16T07:45:14.154Z,94.090
2023-11-16T07:46:14.885Z,94.120
2023-11-16T07:47:14.472Z,94.233
2023-11-16T07:48:14.174Z,94.065
2023-11-16T07:49:14.994Z,93.929
2023-11-16T07:50:14.792Z,93.611
2023-11-16T07:51:14.509Z,94.120
2023-11-16T07:52:14.689Z,94.189
2023-11-16T07:53:14.821Z,93.987
2023-11-16T07:54:14.684Z,94.156
2023-11-16T07:55:14.307Z,94.797
2023-11-16T07:56:13.921Z,94.378
2023-11-16T07:57:14.636Z,94.742
2023-11-16T07:59:13.993Z,95.062
2023-11-16T08:00:18.207Z,95.463
2023-11-16T08:01:13.799Z,95.179
2023-11-16T08:02:14.315Z,95.316
2023-11-16T08:03:15.686Z,95.318
2023-11-16T08:04:14.602Z,95.476
2023-11-16T08:05:15.149Z,95.616
2023-11-16T08:06:14.204Z,96.012
2023-11-16T08:07:13.863Z,95.947
2023-11-16T08:08:14.431Z,96.192
2023-11-16T08:09:13.946Z,96.075
2023-11-16T08:10:14.310Z,96.045
2023-11-16T08:11:14.963Z,96.037
2023-11-16T08:12:14.566Z,96.028
2023-11-16T08:13:14.156Z,95.774
2023-11-16T08:14:14.716Z,95.705
2023-11-16T08:15:14.435Z,95.816
2023-11-16T08:16:14.532Z,95.881
2023-11-16T08:17:14.365Z,95.965
2023-11-16T08:18:15.051Z,96.163
2023-11-16T08:20:14.309Z,95.953
2023-11-16T08:21:14.884Z,95.850
2023-11-16T08:22:14.501Z,95.919
2023-11-16T08:23:14.144Z,95.658
2023-11-16T08:24:14.701Z,95.745
2023-11-16T08:25:14.766Z,95.631
2023-11-16T08:26:15.658Z,95.665
2023-11-16T08:28:14.074Z,95.427
2023-11-16T08:29:14.644Z,95.354
2023-11-16T08:30:14.225Z,94.820
2023-11-16T08:31:18.348Z,94.828
2023-11-16T08:32:14.139Z,95.057
2023-11-16T08:33:15.002Z,94.904
2023-11-16T08:35:14.353Z,94.710
2023-11-16T08:36:14.993Z,94.778
2023-11-16T08:37:14.123Z,94.393
2023-11-16T08:38:14.934Z,94.107
2023-11-16T08:39:14.476Z,93.924
2023-11-16T08:40:14.386Z,93.886
2023-11-16T08:43:14.245Z,93.647
2023-11-16T08:44:17.256Z,93.582
2023-11-16T08:45:14.623Z,92.699
2023-11-16T08:46:14.767Z,93.346
2023-11-16T08:47:14.193Z,92.837
2023-11-16T08:48:15.202Z,92.125
2023-11-16T08:49:14.387Z,93.039
2023-11-16T08:50:13.877Z,92.686
2023-11-16T08:51:17.449Z,92.581
2023-11-16T08:52:13.863Z,91.980
2023-11-16T08:53:14.768Z,91.240
2023-11-16T08:54:14.513Z,91.211
2023-11-16T08:56:23.813Z,90.157
2023-11-16T08:57:14.084Z,91.038
2023-11-16T08:58:14.677Z,90.672
2023-11-16T08:59:15.263Z,90.099
2023-11-16T09:00:14.836Z,89.958
2023-11-16T09:01:15.002Z,90.523
2023-11-16T09:02:18.298Z,90.490
2023-11-16T09:04:15.233Z,90.645
2023-11-16T09:06:14.222Z,90.054
2023-11-16T09:07:14.814Z,89.789
2023-11-16T09:08:14.755Z,90.794
2023-11-16T09:09:14.394Z,90.426
2023-11-16T09:10:14.166Z,90.563
2023-11-16T09:11:14.732Z,90.283
2023-11-16T09:12:14.917Z,89.562
2023-11-16T09:13:14.715Z,90.605
2023-11-16T09:14:14.536Z,89.975
2023-11-16T09:15:14.150Z,89.888
2023-11-16T09:16:14.818Z,89.069
2023-11-16T09:17:16.304Z,89.098
2023-11-16T09:18:16.660Z,88.621
2023-11-16T09:19:14.691Z,88.398
2023-11-16T09:20:14.328Z,88.120
2023-11-16T09:21:14.860Z,88.430
2023-11-16T09:23:17.720Z,87.482
2023-11-16T09:26:14.617Z,86.613
2023-11-16T09:27:14.105Z,86.695
2023-11-16T09:28:14.244Z,86.361
2023-11-16T09:29:17.708Z,85.417
2023-11-16T09:30:14.301Z,85.218
2023-11-16T09:33:14.789Z,85.386
2023-11-16T09:34:14.329Z,83.755
2023-11-16T09:35:20.476Z,84.881
2023-11-16T09:36:15.803Z,86.054
2023-11-16T09:38:14.334Z,86.453
2023-11-16T09:39:14.884Z,85.585
2023-11-16T09:40:14.494Z,85.054
2023-11-16T09:41:14.447Z,83.219
2023-11-16T09:42:14.318Z,84.040
2023-11-16T09:43:14.367Z,83.652
2023-11-16T09:44:14.964Z,82.668
2023-11-16T09:45:14.552Z,83.042
2023-11-16T09:46:14.542Z,84.463
2023-11-16T09:48:14.329Z,84.826
2023-11-16T09:49:18.435Z,84.877
2023-11-16T09:50:14.177Z,84.160
2023-11-16T09:51:14.795Z,85.011
2023-11-16T09:52:14.500Z,83.191
2023-11-16T09:53:14.234Z,83.916
2023-11-16T09:54:15.036Z,83.944
2023-11-16T09:55:14.629Z,83.973
2023-11-16T09:56:14.237Z,81.749
2023-11-16T09:57:13.920Z,82.874
2023-11-16T09:58:15.035Z,83.622
2023-11-16T10:00:14.160Z,81.911
2023-11-16T10:01:14.549Z,81.921
2023-11-16T10:02:14.675Z,81.438
2023-11-16T10:03:14.523Z,82.046
2023-11-16T10:04:15.116Z,81.972
2023-11-16T10:05:15.897Z,82.169
2023-11-16T10:07:14.226Z,83.164
2023-11-16T10:08:14.766Z,82.453
2023-11-16T10:09:14.364Z,83.044
2023-11-16T10:10:13.992Z,82.691
2023-11-16T10:11:14.536Z,83.336
2023-11-16T10:12:14.080Z,82.237
2023-11-16T10:13:14.788Z,83.340
2023-11-16T10:14:14.345Z,83.279
2023-11-16T10:15:15.016Z,82.293
2023-11-16T10:17:14.555Z,82.577
2023-11-16T10:19:13.943Z,82.497
2023-11-16T10:20:14.460Z,82.718
2023-11-16T10:21:13.974Z,82.870
2023-11-16T10:22:14.844Z,83.490
2023-11-16T10:23:14.434Z,83.605
2023-11-16T10:24:13.999Z,83.616
2023-11-16T10:25:14.836Z,82.344
2023-11-16T10:26:14.384Z,83.412
2023-11-16T10:27:13.947Z,82.413
2023-11-16T10:28:14.643Z,82.708
2023-11-16T10:29:14.164Z,81.945
2023-11-16T10:30:14.702Z,82.266
2023-11-16T10:31:14.700Z,82.804
2023-11-16T10:32:14.396Z,83.273
2023-11-16T10:33:14.015Z,82.666
2023-11-16T10:34:14.600Z,84.312
2023-11-16T10:35:14.137Z,82.069
2023-11-16T10:36:14.753Z,83.717
2023-11-16T10:37:14.529Z,82.457
2023-11-16T10:38:14.008Z,82.224
2023-11-16T10:39:14.587Z,82.603
2023-11-16T10:40:14.351Z,82.724
2023-11-16T10:41:14.883Z,82.272
2023-11-16T10:42:14.448Z,82.109
2023-11-16T10:43:14.027Z,81.993
2023-11-16T10:44:14.705Z,82.613
2023-11-16T10:45:14.294Z,81.655
2023-11-16T10:46:15.506Z,81.909
2023-11-16T10:47:14.873Z,81.444
2023-11-16T10:48:14.644Z,81.793
2023-11-16T10:49:14.621Z,80.019
2023-11-16T10:50:14.231Z,81.890
2023-11-16T10:51:14.792Z,81.701
2023-11-16T10:52:14.352Z,81.346
2023-11-16T10:53:14.948Z,80.755
2023-11-16T10:54:14.615Z,80.505
2023-11-16T10:55:14.417Z,81.566
2023-11-16T10:57:14.704Z,80.511
2023-11-16T10:58:14.224Z,80.242
2023-11-16T10:59:14.737Z,79.594
2023-11-16T11:00:14.321Z,78.878
2023-11-16T11:01:18.768Z,80.782
2023-11-16T11:03:15.035Z,79.647
2023-11-16T11:04:18.298Z,81.089
2023-11-16T11:06:14.219Z,79.344
2023-11-16T11:07:14.514Z,78.901
2023-11-16T11:08:14.237Z,77.837
2023-11-16T11:09:14.792Z,79.063
2023-11-16T11:10:14.326Z,80.194
2023-11-16T11:11:14.862Z,77.186
2023-11-16T11:12:14.938Z,79.189
2023-11-16T11:13:14.758Z,79.012
2023-11-16T11:14:14.328Z,78.314
2023-11-16T11:15:16.448Z,78.329
2023-11-16T11:16:14.320Z,78.583
2023-11-16T11:17:14.420Z,79.811
2023-11-16T11:18:15.059Z,79.243
2023-11-16T11:19:14.722Z,79.815
2023-11-16T11:20:14.327Z,78.033
2023-11-16T11:21:14.835Z,77.568
2023-11-16T11:22:14.683Z,77.867
2023-11-16T11:24:15.335Z,79.243
2023-11-16T11:25:14.968Z,78.606
2023-11-16T11:26:14.539Z,78.131
2023-11-16T11:28:14.728Z,77.728
2023-11-16T11:29:14.460Z,77.936
2023-11-16T11:30:14.045Z,78.497
2023-11-16T11:31:15.200Z,79.248
2023-11-16T11:32:17.596Z,77.873
2023-11-16T11:33:18.487Z,78.043
2023-11-16T11:34:14.399Z,77.497
2023-11-16T11:37:19.420Z,78.638
2023-11-16T11:38:13.990Z,78.205
2023-11-16T11:39:14.531Z,78.384
2023-11-16T11:40:14.304Z,77.848
2023-11-16T11:41:14.838Z,78.253
2023-11-16T11:42:14.365Z,77.864
2023-11-16T11:43:13.922Z,78.146
2023-11-16T11:44:17.763Z,78.976
2023-11-16T11:45:14.431Z,78.476
2023-11-16T11:46:14.496Z,79.065
2023-11-16T11:47:14.231Z,78.001
2023-11-16T11:48:14.937Z,78.167
2023-11-16T11:49:14.627Z,77.770
2023-11-16T11:50:17.457Z,77.534
2023-11-16T11:52:14.242Z,77.726
2023-11-16T11:53:14.837Z,77.959
2023-11-16T11:54:14.508Z,78.371
2023-11-16T11:55:14.309Z,76.521
2023-11-16T11:57:19.978Z,76.553
2023-11-16T11:58:15.128Z,76.700
2023-11-16T11:59:14.636Z,76.952
2023-11-16T12:00:18.191Z,76.532
2023-11-16T12:02:14.640Z,77.320
2023-11-16T12:03:14.699Z,77.644
2023-11-16T12:04:24.770Z,78.056
2023-11-16T12:06:15.428Z,78.302
2023-11-16T12:07:14.428Z,77.679
2023-11-16T12:08:14.020Z,78.934
2023-11-16T12:09:14.663Z,79.021
2023-11-16T12:10:14.264Z,79.334
2023-11-16T12:11:18.398Z,79.986
2023-11-16T12:12:13.976Z,80.366
2023-11-16T12:13:14.962Z,79.807
2023-11-16T12:14:13.959Z,80.124
2023-11-16T12:15:14.507Z,80.305
2023-11-16T12:16:14.648Z,80.233
2023-11-16T12:17:14.552Z,80.770
2023-11-16T12:18:18.833Z,80.818
2023-11-16T12:19:13.966Z,80.841
2023-11-16T12:20:14.495Z,80.645
2023-11-16T12:21:14.052Z,81.263
2023-11-16T12:22:14.739Z,80.395
2023-11-16T12:23:14.804Z,80.496
2023-11-16T12:24:14.887Z,80.803
2023-11-16T12:25:14.174Z,80.694
2023-11-16T12:26:14.739Z,80.227
2023-11-16T12:27:14.308Z,80.355
2023-11-16T12:28:14.007Z,80.406
2023-11-16T12:29:14.506Z,80.540
2023-11-16T12:30:17.273Z,80.027
2023-11-16T12:31:14.291Z,80.864
2023-11-16T12:34:14.747Z,80.147
2023-11-16T12:35:14.336Z,80.793
2023-11-16T12:36:16.854Z,80.748
2023-11-16T12:37:14.459Z,81.030
2023-11-16T12:38:14.043Z,81.106
2023-11-16T12:39:14.608Z,81.167
2023-11-16T12:40:14.087Z,81.455
2023-11-16T12:41:14.815Z,81.640
2023-11-16T12:42:14.029Z,81.161
2023-11-16T12:43:14.816Z,80.782
2023-11-16T12:45:13.925Z,81.013
2023-11-16T12:46:14.962Z,80.774
2023-11-16T12:47:28.706Z,80.425
2023-11-16T12:49:15.238Z,80.212
2023-11-16T12:50:14.853Z,80.820
2023-11-16T12:51:14.390Z,81.131
2023-11-16T12:52:14.309Z,81.423
2023-11-16T12:53:19.166Z,81.186
2023-11-16T12:55:14.550Z,80.816
2023-11-16T12:56:14.087Z,81.215
2023-11-16T12:57:14.094Z,81.297
2023-11-16T12:58:14.641Z,81.007
2023-11-16T12:59:17.823Z,81.284
2023-11-16T13:02:14.086Z,80.629
2023-11-16T13:03:14.989Z,81.238
2023-11-16T13:04:14.847Z,81.778
2023-11-16T13:05:20.201Z,81.564
2023-11-16T13:07:15.028Z,81.650
2023-11-16T13:08:14.665Z,81.854
2023-11-16T13:09:14.294Z,82.262
2023-11-16T13:10:14.310Z,82.287
2023-11-16T13:11:16.064Z,82.449
2023-11-16T13:12:24.553Z,81.930
2023-11-16T13:15:14.358Z,81.848
2023-11-16T13:16:14.418Z,81.900
2023-11-16T13:17:14.613Z,82.182
2023-11-16T13:18:14.269Z,81.745
2023-11-16T13:19:15.005Z,82.005
2023-11-16T13:20:14.557Z,81.987
2023-11-16T13:21:14.572Z,81.881
2023-11-16T13:22:14.132Z,81.898
2023-11-16T13:23:19.043Z,82.748
2023-11-16T13:25:14.253Z,81.819
2023-11-16T13:26:14.808Z,81.980
2023-11-16T13:27:14.363Z,82.920
2023-11-16T13:28:15.027Z,81.192
2023-11-16T13:29:16.919Z,81.528
2023-11-16T13:30:15.825Z,81.922
2023-11-16T13:33:14.731Z,81.860
2023-11-16T13:34:14.353Z,81.398
2023-11-16T13:35:17.842Z,81.854
2023-11-16T13:37:14.995Z,81.455
2023-11-16T13:38:14.550Z,81.085
2023-11-16T13:39:14.065Z,81.900
2023-11-16T13:40:15.123Z,81.356
2023-11-16T13:41:16.977Z,81.510
2023-11-16T13:42:14.464Z,81.263
2023-11-16T13:45:14.398Z,82.096
2023-11-16T13:46:14.379Z,81.970
2023-11-16T13:48:15.104Z,82.046
2023-11-16T13:49:14.692Z,82.878
2023-11-16T13:50:14.209Z,82.392
2023-11-16T13:51:14.777Z,82.592
2023-11-16T13:52:14.332Z,82.497
2023-11-16T13:53:14.904Z,82.739
2023-11-16T13:54:14.493Z,82.565
2023-11-16T13:55:14.001Z,82.735
2023-11-16T13:56:14.723Z,82.794
2023-11-16T13:57:14.173Z,82.870
2023-11-16T13:58:14.964Z,83.139
2023-11-16T13:59:14.519Z,83.300
2023-11-16T14:00:14.118Z,82.893
2023-11-16T14:01:14.905Z,82.947
2023-11-16T14:02:14.610Z,83.275
2023-11-16T14:03:15.046Z,83.441
2023-11-16T14:04:15.497Z,83.391
2023-11-16T14:05:19.120Z,83.590
2023-11-16T14:08:14.941Z,83.616
2023-11-16T14:09:14.663Z,83.418
2023-11-16T14:10:25.243Z,83.912
2023-11-16T14:11:18.699Z,84.272
2023-11-16T14:13:14.827Z,83.546
2023-11-16T14:14:14.329Z,83.551
2023-11-16T14:15:14.094Z,83.166
2023-11-16T14:16:15.711Z,83.403
2023-11-16T14:17:14.767Z,83.075
2023-11-16T14:19:14.544Z,83.925